• Join FlightAware (Why Join?)
  • Login
  • US Flag 
07:07AM EDT


 

Airport Tracker/Info


-or-


 

Live Flight TrackerFlight Track Log ✈ N65966 ✈ 04-May-2013 ✈ KMCN - KFLL

Flight Track Log - Related Links

Times and Time Zones

All times are in EDT time to prevent confusion due to time zone crossing. See the N65966 flight status page for this flight to view local times or setup timezone preferences in your user account.

Time Position Orientation Groundspeed Altitude Reporting Facility
EDT Latitude Longitude Course Direction KTS MPH feet Rate Location/Type
11:33AM 32.7000 -83.6333 90° East 112 129 1,200  Level Atlanta TRACON
11:34AM 32.7000 -83.6000 90° East 93 107 2,800 1,380 Climbing Atlanta TRACON
11:35AM 32.7167 -83.5833 40° Northeast 96 110 4,000 1,140 Climbing Atlanta TRACON
11:36AM 32.7000 -83.5500 121° Southeast 104 120 5,100 1,140 Climbing Atlanta TRACON
11:37AM 32.6833 -83.5333 140° Southeast 112 129 6,300 1,140 Climbing Atlanta TRACON
11:38AM 32.6500 -83.5167 157° South 118 136 7,400 1,140 Climbing Atlanta TRACON
11:39AM 32.6167 -83.5000 157° South 124 143 8,600 1,020 Climbing Atlanta TRACON
11:39AM 32.5992 -83.4989 177° South 120 138 8,900 960 Climbing Atlanta Center
11:40AM 32.5697 -83.4817 154° Southeast 135 155 10,000 1,140 Climbing Atlanta Center
11:41AM 32.5364 -83.4647 157° South 135 155 11,200 1,080 Climbing Atlanta Center
11:42AM 32.5028 -83.4453 154° Southeast 135 155 12,200 1,020 Climbing Atlanta Center
11:43AM 32.4631 -83.4208 153° Southeast 141 162 13,300 1,140 Climbing Atlanta Center
11:44AM 32.4294 -83.3989 151° Southeast 141 162 14,500 1,080 Climbing Atlanta Center
11:46AM 32.3744 -83.3600 149° Southeast 145 167 16,100 1,080 Climbing Jacksonville Center
11:47AM 32.3369 -83.3353 151° Southeast 145 167 17,200 960 Climbing Jacksonville Center
11:48AM 32.2994 -83.3081 148° Southeast 150 173 18,100 840 Climbing Jacksonville Center
11:49AM 32.2578 -83.2808 151° Southeast 162 186 18,900 480 Climbing Jacksonville Center
11:50AM 32.2100 -83.2486 150° Southeast 184 212 19,100 60 Climbing Jacksonville Center
11:51AM 32.1514 -83.2433 176° South 197 227 19,100  Level Jacksonville Center
11:52AM 32.0931 -83.2456 182° South 203 234 19,100  Level Jacksonville Center
11:53AM 32.0367 -83.2431 178° South 203 234 19,100  Level Jacksonville Center
11:54AM 31.9781 -83.2403 178° South 209 241 19,100  Level Jacksonville Center
11:55AM 31.9217 -83.2378 178° South 209 241 19,100  Level Jacksonville Center
11:56AM 31.8633 -83.2350 178° South 208 239 19,100  Level Jacksonville Center
11:56AM 31.8217 -83.2350 180° South 208 239 19,100  Level Jacksonville Center
11:57AM 31.8111 -83.2347 179° South 214 246 19,100  Level Jacksonville Center
11:57AM 31.7653 -83.2394 185° South 204 235 19,100  Level Jacksonville Center
11:58AM 31.7547 -83.2419 191° South 214 246 19,100  Level Jacksonville Center
11:58AM 31.7067 -83.2442 182° South 205 236 19,100  Level Jacksonville Center
11:59AM 31.6983 -83.2442 180° South 214 246 19,100  Level Jacksonville Center
11:59AM 31.6503 -83.2464 182° South 206 237 19,100  Level Jacksonville Center
12:00PM 31.6400 -83.2439 168° South 214 246 19,100  Level Jacksonville Center
12:00PM 31.5919 -83.2486 185° South 207 238 19,100  Level Jacksonville Center
12:01PM 31.5814 -83.2486 180° South 214 246 19,100  Level Jacksonville Center
12:01PM 31.5356 -83.2533 185° South 207 238 19,100  Level Jacksonville Center
12:02PM 31.4769 -83.2556 182° South 206 237 19,100  Level Jacksonville Center
12:03PM 31.4206 -83.2578 182° South 205 236 19,100  Level Jacksonville Center
12:04PM 31.3600 -83.2600 182° South 206 237 19,100  Level Jacksonville Center
12:05PM 31.2994 -83.2622 182° South 205 236 19,100  Level Jacksonville Center
12:06PM 31.2453 -83.2619 180° South 205 236 19,100  Level Jacksonville Center
12:07PM 31.1867 -83.2667 184° South 203 234 19,100  Level Jacksonville Center
12:08PM 31.1533 -83.2689 183° South 204 235 19,100  Level Jacksonville Center
12:08PM 31.1325 -83.2689 180° South 203 234 19,100  Level Jacksonville Center
12:09PM 31.1011 -83.2686 180° South 204 235 19,100  Level Jacksonville Center
12:09PM 31.0739 -83.2708 184° South 205 236 19,100  Level Jacksonville Center
12:10PM 31.0428 -83.2683 176° South 204 235 19,100  Level Jacksonville Center
12:10PM 31.0175 -83.2731 189° South 206 237 19,100  Level Jacksonville Center
12:11PM 30.9842 -83.2731 180° South 209 241 19,100  Level Jacksonville Center
12:11PM 30.9569 -83.2778 188° South 210 242 19,100  Level Jacksonville Center
12:12PM 30.9300 -83.2753 175° South 224 258 19,100  Level Jacksonville Center
12:13PM 30.8736 -83.2775 182° South 224 258 19,100  Level Jacksonville Center
12:14PM 30.8131 -83.2794 182° South 218 251 19,100  Level Jacksonville Center
12:15PM 30.7567 -83.2697 172° South 207 238 19,200  Climbing Jacksonville Center
12:16PM 30.7025 -83.2406 155° Southeast 207 238 19,100 -60 Descending Jacksonville Center
12:17PM 30.6461 -83.2136 158° South 212 244 19,100  Level Jacksonville Center
12:18PM 30.5878 -83.2064 174° South 212 244 19,100  Level Jacksonville Center
12:19PM 30.5292 -83.1942 170° South 212 244 19,100  Level Jacksonville Center
12:20PM 30.4728 -83.1819 169° South 212 244 19,100  Level Jacksonville Center
12:21PM 30.4144 -83.1719 172° South 212 244 19,100  Level Jacksonville Center
12:22PM 30.3561 -83.1597 170° South 217 250 19,100  Level Jacksonville Center
12:23PM 30.2997 -83.1500 172° South 217 250 19,100  Level Jacksonville Center
12:24PM 30.2392 -83.1378 170° South 217 250 19,100  Level Jacksonville Center
12:25PM 30.1828 -83.1256 169° South 217 250 19,100  Level Jacksonville Center
12:26PM 30.1264 -83.1158 172° South 217 250 19,100  Level Jacksonville Center
12:27PM 30.0681 -83.1039 170° South 217 250 19,100  Level Jacksonville Center
12:28PM 30.0094 -83.0917 170° South 217 250 19,100  Level Jacksonville Center
12:29PM 29.9489 -83.0819 172° South 217 250 19,100  Level Jacksonville Center
12:30PM 29.8928 -83.0697 169° South 217 250 19,100  Level Jacksonville Center
12:31PM 29.8322 -83.0603 172° South 217 250 19,100  Level Jacksonville Center
12:32PM 29.7758 -83.0481 169° South 217 250 19,100  Level Jacksonville Center
12:33PM 29.7153 -83.0361 170° South 217 250 19,100  Level Jacksonville Center
12:34PM 29.6569 -83.0264 172° South 223 257 19,100  Level Jacksonville Center
12:35PM 29.5942 -83.0119 169° South 212 244 19,100  Level Jacksonville Center
12:36PM 29.5358 -83.0025 172° South 216 249 19,100  Level Jacksonville Center
12:37PM 29.4794 -82.9881 167° South 221 254 19,100  Level Jacksonville Center
12:38PM 29.4167 -82.9761 171° South 221 254 19,100  Level Jacksonville Center
12:39PM 29.3583 -82.9642 170° South 221 254 19,100  Level Jacksonville Center
12:40PM 29.2958 -82.9522 171° South 221 254 19,100  Level Jacksonville Center
12:41PM 29.2353 -82.9403 170° South 221 254 19,100  Level Jacksonville Center
12:42PM 29.1725 -82.9258 169° South 221 254 19,100  Level Jacksonville Center
12:43PM 29.1119 -82.9164 172° South 221 254 19,100  Level Jacksonville Center
12:44PM 29.0514 -82.9044 170° South 221 254 19,100  Level Jacksonville Center
12:45PM 28.9911 -82.8925 170° South 221 254 19,100  Level Jacksonville Center
12:46PM 28.9306 -82.8831 172° South 221 254 19,100  Level Jacksonville Center
12:47PM 28.8700 -82.8711 170° South 221 254 19,100  Level Jacksonville Center
12:48PM 28.8094 -82.8569 168° South 221 254 19,100  Level Jacksonville Center
12:49PM 28.7508 -82.8475 172° South 221 254 19,100  Level Jacksonville Center
12:50PM 28.6903 -82.8381 172° South 221 254 19,100  Level Jacksonville Center
12:51PM 28.6300 -82.8264 170° South 221 254 19,100  Level Jacksonville Center
12:52PM 28.5694 -82.8144 170° South 221 254 19,100  Level Jacksonville Center
12:53PM 28.5089 -82.8028 170° South 221 254 19,100  Level Jacksonville Center
12:55PM 28.3725 -82.7778 171° South 218 251 19,100  Level Miami Center
12:56PM 28.3106 -82.7675 172° South 223 257 19,100  Level Miami Center
12:57PM 28.2506 -82.7550 170° South 228 262 19,100  Level Miami Center
12:58PM 28.1861 -82.7444 172° South 228 262 19,100  Level Miami Center
12:59PM 28.1222 -82.7317 170° South 233 268 19,100  Level Miami Center
01:00PM 28.0622 -82.7192 170° South 233 268 19,100  Level Miami Center
01:01PM 27.9919 -82.7014 167° South 240 276 19,100  Level Miami Center
01:02PM 27.9300 -82.6889 170° South 235 270 19,100  Level Miami Center
01:03PM 27.8706 -82.6625 159° South 235 270 19,100  Level Miami Center
01:04PM 27.8178 -82.6244 147° Southeast 228 262 19,100  Level Miami Center
01:05PM 27.7608 -82.5864 149° Southeast 228 262 19,100  Level Miami Center
01:06PM 27.7103 -82.5486 147° Southeast 228 262 19,100  Level Miami Center
01:07PM 27.6572 -82.5156 151° Southeast 228 262 19,100  Level Miami Center
01:08PM 27.6003 -82.4800 151° Southeast 228 262 19,100  Level Miami Center
01:09PM 27.5414 -82.4397 149° Southeast 234 269 19,100  Level Miami Center
01:10PM 27.4864 -82.4019 149° Southeast 234 269 19,100  Level Miami Center
01:11PM 27.4314 -82.3667 150° Southeast 234 269 19,100  Level Miami Center
01:12PM 27.3783 -82.3336 151° Southeast 234 269 19,100  Level Miami Center
01:13PM 27.3194 -82.2933 149° Southeast 234 269 19,100  Level Miami Center
01:14PM 27.2625 -82.2533 148° Southeast 239 275 19,100  Level Miami Center
01:15PM 27.2053 -82.2181 151° Southeast 239 275 19,100  Level Miami Center
01:16PM 27.1544 -82.1853 150° Southeast 241 277 19,100  Level Miami Center
01:17PM 27.1036 -82.1503 148° Southeast 232 267 19,100  Level Miami Center
01:18PM 27.0422 -82.1103 150° Southeast 232 267 19,100  Level Miami Center
01:19PM 26.9831 -82.0750 152° Southeast 239 275 19,100  Level Miami Center
01:20PM 26.9278 -82.0422 152° Southeast 239 275 19,100  Level Miami Center
01:21PM 26.8750 -82.0050 148° Southeast 234 269 19,100  Level Miami Center
01:22PM 26.8197 -81.9700 151° Southeast 229 264 19,100  Level Miami Center
01:23PM 26.7647 -81.9328 149° Southeast 229 264 19,100  Level Miami Center
01:24PM 26.7117 -81.8978 149° Southeast 229 264 19,100  Level Miami Center
01:25PM 26.6567 -81.8631 151° Southeast 224 258 19,100  Level Miami Center
01:26PM 26.5994 -81.8233 148° Southeast 224 258 19,100  Level Miami Center
01:27PM 26.5422 -81.7908 153° Southeast 229 264 19,100 -120 Level Miami Center
01:28PM 26.5025 -81.7267 125° Southeast 237 273 18,900 -780 Descending Miami Center
01:29PM 26.4653 -81.6556 120° Southeast 246 283 17,600 -900 Descending Miami Center
01:30PM 26.4322 -81.5800 116° Southeast 269 310 17,100 660 Descending Miami Center
01:31PM 26.3925 -81.5133 124° Southeast 269 310 19,000 900 Climbing Miami Center
01:32PM 26.3428 -81.4419 128° Southeast 274 315 19,000  Level Miami Center
01:33PM 26.2822 -81.3747 135° Southeast 285 328 19,000  Level Miami Center
01:34PM 26.2319 -81.3103 131° Southeast 199 229 19,000  Level Miami Center
01:35PM 26.1836 -81.2483 131° Southeast 240 276 19,000 -7,380 Level Miami Center
01:36PM 26.1703 -81.2039 108° East 252 290 7,000 -10,680 Descending Miami Center
01:37PM 26.1550 -81.1569 110° East 256 295 5,900 -660 Descending Miami Center
01:37PM 26.1400 -81.0986 106° East 201 231 6,000  Climbing Miami Center
01:39PM 26.1189 -81.0308 109° East 206 237 6,000  Level Miami Center
01:40PM 26.1000 -80.9678 108° East 207 238 6,100  Climbing Miami Center
01:41PM 26.0933 -80.9050 97° East 209 241 6,000 -60 Descending Miami Center
01:42PM 26.0972 -80.8406 86° East 208 239 6,000  Level Miami Center
01:43PM 26.1011 -80.7711 86° East 210 242 6,100  Climbing Miami Center
01:44PM 26.1006 -80.7156 91° East 210 242 6,000 -60 Descending Miami Center
01:45PM 26.1044 -80.6486 86° East 206 237 6,000  Level Miami Center
01:46PM 26.1019 -80.5792 92° East 205 236 6,000  Level Miami Center
01:47PM 26.1014 -80.5144 91° East 207 238 6,000  Level Miami Center
01:48PM 26.1072 -80.4497 84° East 203 234 6,000  Level Miami Center
01:49PM 26.1131 -80.3875 84° East 202 232 6,000  Level Miami Center
01:50PM 26.1186 -80.3300 84° East 204 235 6,000  Level Miami Center
01:51PM 26.1222 -80.2631 87° East 201 231 6,000  Level Miami Center
01:52PM 26.1297 -80.2031 82° East 199 229 6,000  Level Miami Center
01:53PM 26.1353 -80.1431 84° East 197 227 6,000 -300 Level Miami Center
01:54PM 26.1431 -80.0806 82° East 206 237 5,400 -960 Descending Miami Center
01:55PM 26.1511 -80.0022 83° East 231 266 4,100 -720 Descending Miami Center
01:56PM 26.1628 -79.9400 78° East 196 226 4,000 -840 Descending Miami Center
01:57PM 26.1217 -79.9042 142° Southeast 208 239 2,400 -960 Descending Miami Center
01:58PM 26.0753 -79.9286 205° Southwest 176 203 2,000 -180 Descending Miami Center
01:59PM 26.0719 -79.9817 266° West 149 171 2,100 -120 Climbing Miami Center
02:00PM 26.0733 -80.0256 272° West 136 157 1,800 -420 Descending Miami Center
02:01PM 26.0744 -80.0650 272° West 124 143 1,300 -660 Descending Miami Center
02:02PM 26.0736 -80.0972 268° West 109 125 600 -720 Descending Miami Center
02:05PM 26.0667 -80.1500 270° West  Level FlightAware Approximate